Главная страница
METAR-TAF:

METAR-TAF

Аэропорты :

Оушен округ, Нью-Джерси, США

широта: 39-55-39N, долгота: 074-17-33W, высота над уровнем моря: 25 м

Текущие метеонаблюдения

Эта сводка был подготовлена 22 минут назад, в 23:56 UTC
Штиль
Температура 22°C
Влажность 73%
Давление 1016 hPa
Видимость: 16.1 км
ясное небо

METAR: KMJX 232356Z AUTO 00000KT 10SM CLR 22/17 A3000 RMK AO2 SLP163 T02170167 10267 20217 53013

Время: 20:18 (00:18 UTC)


TAF: отсутствует

Метеонаблюдения и прогнозы для более 4000 аэропортов (сводки METAR и TAF).

Имеющиеся станции представлены на карте желтыми и красными точками.

Чтобы увидеть название станции, наведите на нее мышь.

Затем щелкните, чтобы увидеть метеонаблюдения и метеопрогнозы.

Управление картой: чтобы увеличить масштаб, щелкните зеленые кнопки с черным крестиком; чтобы уменьшить масштаб, щелкните зеленую кнопку с тире; для просмотра соседних карт щелкайте зеленые стрелки.


METAR-TAF: